Pacific Dawn — 3ECJ9 — position and weather

sailwx.info

Track history (hours):
 
Tides and Currents Weather Stations Pressure Air Temp Water Temp Dewpoint Dewpoint Depression Visibility Wind Speed Wind Dir Waves Ship Positions

Pacific Dawn

Last reported at 2016-Sep-26 02:33 UTC. Time now 2016-Sep-28 22:15 UTC.
Position N 33°53' W 125°33'.

Length 239 m; draft 8 m.

Type: Tanker. MMSI: 371361000.

Date/timePositionNaut miles runAvg speedWind from/ knotsBaromVisibWave heightAir tempDewpointWater temp
2016-Sep-26 02:33N 33°53' W 125°33'1211.8
2016-Sep-26 01:33N 33°48' W 125°20'1211.8
2016-Sep-26 00:33N 33°44' W 125°07'3611.9
2016-Sep-25 21:33N 33°37' W 124°25'4812.0
2016-Sep-25 17:33N 33°37' W 123°27'1211.7
2016-Sep-25 16:33N 33°38' W 123°13'1211.5
2016-Sep-25 15:33N 33°42' W 123°00'1211.7
2016-Sep-25 14:32N 33°47' W 122°47'2311.5
2016-Sep-25 12:33N 33°56' W 122°22'1212.1
2016-Sep-25 11:34N 34°01' W 122°08'1211.9
2016-Sep-25 10:34N 34°05' W 121°55'1212.0
2016-Sep-25 09:33N 34°10' W 121°41'2412.3
2016-Sep-25 07:33N 34°19' W 121°14'3411.2
2016-Sep-25 04:33N 34°22' W 120°34'4912.1
2016-Sep-25 00:32N 34°09' W 119°37'2412.1
2016-Sep-24 22:34N 34°01' W 119°10'1212.1
2016-Sep-24 21:34N 33°55' W 118°57'2311.7
2016-Sep-24 19:34N 33°44' W 118°32'1211.6
2016-Sep-24 18:34N 33°38' W 118°20'8 8.3
2016-Sep-24 17:33N 33°42' W 118°11'3 3.1
2016-Sep-24 16:28N 33°45' W 118°13'0 0.0
2016-Sep-24 14:22N 33°45' W 118°13'0 0.0
2016-Sep-24 12:31N 33°45' W 118°13'0 0.0
2016-Sep-24 09:22N 33°45' W 118°13'0 0.0
2016-Sep-24 00:28N 33°45' W 118°13'0 0.0
2016-Sep-23 15:22N 33°45' W 118°13'0 0.0
2016-Sep-23 13:33N 33°45' W 118°13'2 0.3
2016-Sep-23 06:25N 33°44' W 118°13'0 0.1
2016-Sep-23 04:28N 33°44' W 118°13'0 0.0
2016-Sep-23 02:28N 33°44' W 118°13'0 0.0
2016-Sep-23 01:04N 33°44' W 118°13'0 0.0
2016-Sep-23 00:25N 33°44' W 118°13'0 0.0
2016-Sep-22 23:28N 33°44' W 118°13'0 0.0
2016-Sep-22 20:28N 33°44' W 118°13'0 0.0
2016-Sep-22 12:31N 33°44' W 118°13'1 0.0
2016-Sep-21 03:33N 33°44' W 118°13'5 0.5
2016-Sep-20 17:29N 33°41' W 118°08'0 0.0
2016-Sep-20 14:33N 33°41' W 118°08'0 0.0
2016-Sep-20 13:30N 33°41' W 118°08'11 3.8
2016-Sep-20 10:33N 33°36' W 118°20'19 9.5
2016-Sep-20 08:33N 33°45' W 118°40'9 8.9
2016-Sep-20 07:33N 33°50' W 118°49'1010.1
2016-Sep-20 06:33N 33°55' W 118°60'4410.4
2016-Sep-20 02:22N 34°10' W 119°49'3111.0
2016-Sep-19 23:33N 34°18' W 120°25'4210.6
2016-Sep-19 19:33N 34°15' W 121°16'1010.2
2016-Sep-19 18:33N 34°12' W 121°28'1 0.6
2016-Sep-19 16:33N 34°11' W 121°29'14 6.9
2016-Sep-19 14:33N 34°05' W 121°44'2210.8
2016-Sep-19 12:32N 33°56' W 122°08'1110.9
2016-Sep-19 11:33N 33°51' W 122°19'2210.8
2016-Sep-19 09:33N 33°42' W 122°43'2311.2
2016-Sep-19 07:33N 33°33' W 123°08'1111.4
2016-Sep-19 06:33N 33°29' W 123°20'3310.9
2016-Sep-19 03:33N 33°15' W 123°56'10 9.9
2016-Sep-19 02:33N 33°11' W 124°06'23 9.8
2016-Sep-19 00:13N 33°09' W 124°34'5712.3
2016-Sep-18 19:33N 33°31' W 125°37'5312.9
2016-Sep-18 15:27N 33°50' W 126°37'7512.5
2016-Sep-18 09:28N 34°17' W 128°01'9213.0
2016-Sep-18 02:22N 34°50' W 129°46'1113.1
2016-Sep-18 01:32N 34°54' W 129°58'1713.0
2016-Sep-18 00:15N 34°60' W 130°17'2313.1
2016-Sep-17 22:31N 35°08' W 130°43'2813.1
2016-Sep-17 20:24N 35°18' W 131°15'2613.4
2016-Sep-17 18:26N 35°27' W 131°45'  
Track history (hours):
 
Tides and Currents Weather Stations Pressure Air Temp Water Temp Dewpoint Dewpoint Depression Visibility Wind Speed Wind Dir Waves Ship Positions

Pacific Dawn

Last reported at 2016-Sep-26 02:33 UTC. Time now 2016-Sep-28 22:15 UTC.
Position N 33°53' W 125°33'.

Length 239 m; draft 8 m.

Type: Tanker. MMSI: 371361000.

Date/timePositionNaut miles runAvg speedWind from/ knotsBaromVisibWave heightAir tempDewpointWater temp
2016-Sep-26 02:33N 33°53' W 125°33'1211.8
2016-Sep-26 01:33N 33°48' W 125°20'1211.8
2016-Sep-26 00:33N 33°44' W 125°07'3611.9
2016-Sep-25 21:33N 33°37' W 124°25'4812.0
2016-Sep-25 17:33N 33°37' W 123°27'1211.7
2016-Sep-25 16:33N 33°38' W 123°13'1211.5
2016-Sep-25 15:33N 33°42' W 123°00'1211.7
2016-Sep-25 14:32N 33°47' W 122°47'2311.5
2016-Sep-25 12:33N 33°56' W 122°22'1212.1
2016-Sep-25 11:34N 34°01' W 122°08'1211.9
2016-Sep-25 10:34N 34°05' W 121°55'1212.0
2016-Sep-25 09:33N 34°10' W 121°41'2412.3
2016-Sep-25 07:33N 34°19' W 121°14'3411.2
2016-Sep-25 04:33N 34°22' W 120°34'4912.1
2016-Sep-25 00:32N 34°09' W 119°37'2412.1
2016-Sep-24 22:34N 34°01' W 119°10'1212.1
2016-Sep-24 21:34N 33°55' W 118°57'2311.7
2016-Sep-24 19:34N 33°44' W 118°32'1211.6
2016-Sep-24 18:34N 33°38' W 118°20'8 8.3
2016-Sep-24 17:33N 33°42' W 118°11'3 3.1
2016-Sep-24 16:28N 33°45' W 118°13'0 0.0
2016-Sep-24 14:22N 33°45' W 118°13'0 0.0
2016-Sep-24 12:31N 33°45' W 118°13'0 0.0
2016-Sep-24 09:22N 33°45' W 118°13'0 0.0
2016-Sep-24 00:28N 33°45' W 118°13'0 0.0
2016-Sep-23 15:22N 33°45' W 118°13'0 0.0
2016-Sep-23 13:33N 33°45' W 118°13'2 0.3
2016-Sep-23 06:25N 33°44' W 118°13'0 0.1
2016-Sep-23 04:28N 33°44' W 118°13'0 0.0
2016-Sep-23 02:28N 33°44' W 118°13'0 0.0
2016-Sep-23 01:04N 33°44' W 118°13'0 0.0
2016-Sep-23 00:25N 33°44' W 118°13'0 0.0
2016-Sep-22 23:28N 33°44' W 118°13'0 0.0
2016-Sep-22 20:28N 33°44' W 118°13'0 0.0
2016-Sep-22 12:31N 33°44' W 118°13'1 0.0
2016-Sep-21 03:33N 33°44' W 118°13'5 0.5
2016-Sep-20 17:29N 33°41' W 118°08'0 0.0
2016-Sep-20 14:33N 33°41' W 118°08'0 0.0
2016-Sep-20 13:30N 33°41' W 118°08'11 3.8
2016-Sep-20 10:33N 33°36' W 118°20'19 9.5
2016-Sep-20 08:33N 33°45' W 118°40'9 8.9
2016-Sep-20 07:33N 33°50' W 118°49'1010.1
2016-Sep-20 06:33N 33°55' W 118°60'4410.4
2016-Sep-20 02:22N 34°10' W 119°49'3111.0
2016-Sep-19 23:33N 34°18' W 120°25'4210.6
2016-Sep-19 19:33N 34°15' W 121°16'1010.2
2016-Sep-19 18:33N 34°12' W 121°28'1 0.6
2016-Sep-19 16:33N 34°11' W 121°29'14 6.9
2016-Sep-19 14:33N 34°05' W 121°44'2210.8
2016-Sep-19 12:32N 33°56' W 122°08'1110.9
2016-Sep-19 11:33N 33°51' W 122°19'2210.8
2016-Sep-19 09:33N 33°42' W 122°43'2311.2
2016-Sep-19 07:33N 33°33' W 123°08'1111.4
2016-Sep-19 06:33N 33°29' W 123°20'3310.9
2016-Sep-19 03:33N 33°15' W 123°56'10 9.9
2016-Sep-19 02:33N 33°11' W 124°06'23 9.8
2016-Sep-19 00:13N 33°09' W 124°34'5712.3
2016-Sep-18 19:33N 33°31' W 125°37'5312.9
2016-Sep-18 15:27N 33°50' W 126°37'7512.5
2016-Sep-18 09:28N 34°17' W 128°01'9213.0
2016-Sep-18 02:22N 34°50' W 129°46'1113.1
2016-Sep-18 01:32N 34°54' W 129°58'1713.0
2016-Sep-18 00:15N 34°60' W 130°17'2313.1
2016-Sep-17 22:31N 35°08' W 130°43'2813.1
2016-Sep-17 20:24N 35°18' W 131°15'2613.4
2016-Sep-17 18:26N 35°27' W 131°45'  

Dump ship's entire track history